sensor_id;sensor_type;location;lat;lon;timestamp;temperature;humidity
5786;DHT22;2919;48.630;9.000;2023-03-01T00:01:07;-2.80;99.90
5786;DHT22;2919;48.630;9.000;2023-03-01T00:03:34;-2.80;99.90
5786;DHT22;2919;48.630;9.000;2023-03-01T00:06:00;-2.80;99.90
5786;DHT22;2919;48.630;9.000;2023-03-01T00:08:26;-2.80;99.90
5786;DHT22;2919;48.630;9.000;2023-03-01T00:11:12;-2.90;99.90
5786;DHT22;2919;48.630;9.000;2023-03-01T00:13:38;-2.80;99.90
5786;DHT22;2919;48.630;9.000;2023-03-01T00:16:16;-2.90;99.90
5786;DHT22;2919;48.630;9.000;2023-03-01T00:18:43;-2.90;99.90
5786;DHT22;2919;48.630;9.000;2023-03-01T00:21:09;-2.90;99.90
5786;DHT22;2919;48.630;9.000;2023-03-01T00:23:35;-2.90;99.90
5786;DHT22;2919;48.630;9.000;2023-03-01T00:26:01;-2.90;99.90
5786;DHT22;2919;48.630;9.000;2023-03-01T00:28:27;-2.90;99.90
5786;DHT22;2919;48.630;9.000;2023-03-01T00:30:53;-3.00;99.90
5786;DHT22;2919;48.630;9.000;2023-03-01T00:33:18;-3.00;99.90
5786;DHT22;2919;48.630;9.000;2023-03-01T00:35:44;-3.10;99.90
5786;DHT22;2919;48.630;9.000;2023-03-01T00:38:10;-3.10;99.90
5786;DHT22;2919;48.630;9.000;2023-03-01T00:40:36;-3.10;99.90
5786;DHT22;2919;48.630;9.000;2023-03-01T00:43:03;-3.10;99.90
5786;DHT22;2919;48.630;9.000;2023-03-01T00:45:29;-3.10;99.90
5786;DHT22;2919;48.630;9.000;2023-03-01T00:47:56;-3.10;99.90
5786;DHT22;2919;48.630;9.000;2023-03-01T00:50:21;-3.10;99.90
5786;DHT22;2919;48.630;9.000;2023-03-01T00:52:50;-3.20;99.90
5786;DHT22;2919;48.630;9.000;2023-03-01T00:55:17;-3.20;99.90
5786;DHT22;2919;48.630;9.000;2023-03-01T00:57:42;-3.20;99.90
5786;DHT22;2919;48.630;9.000;2023-03-01T01:00:08;-3.30;99.90
5786;DHT22;2919;48.630;9.000;2023-03-01T01:02:35;-3.30;99.90
5786;DHT22;2919;48.630;9.000;2023-03-01T01:05:00;-3.30;99.90
5786;DHT22;2919;48.630;9.000;2023-03-01T01:07:26;-3.30;99.90
5786;DHT22;2919;48.630;9.000;2023-03-01T01:09:52;-3.30;99.90
5786;DHT22;2919;48.630;9.000;2023-03-01T01:12:17;-3.40;99.90
5786;DHT22;2919;48.630;9.000;2023-03-01T01:14:43;-3.40;99.90
5786;DHT22;2919;48.630;9.000;2023-03-01T01:17:09;-3.40;99.90
5786;DHT22;2919;48.630;9.000;2023-03-01T01:19:34;-3.40;99.90
5786;DHT22;2919;48.630;9.000;2023-03-01T01:22:00;-3.50;99.90
5786;DHT22;2919;48.630;9.000;2023-03-01T01:24:26;-3.50;99.90
5786;DHT22;2919;48.630;9.000;2023-03-01T01:26:51;-3.50;99.90
5786;DHT22;2919;48.630;9.000;2023-03-01T01:29:17;-3.50;99.90
5786;DHT22;2919;48.630;9.000;2023-03-01T01:31:43;-3.50;99.90
5786;DHT22;2919;48.630;9.000;2023-03-01T01:34:14;-3.60;99.90
5786;DHT22;2919;48.630;9.000;2023-03-01T01:36:40;-3.60;99.90
5786;DHT22;2919;48.630;9.000;2023-03-01T01:39:06;-3.70;99.90
5786;DHT22;2919;48.630;9.000;2023-03-01T01:41:32;-3.70;99.90
5786;DHT22;2919;48.630;9.000;2023-03-01T01:46:38;-3.70;99.90
5786;DHT22;2919;48.630;9.000;2023-03-01T01:49:23;-3.60;99.90
5786;DHT22;2919;48.630;9.000;2023-03-01T01:51:52;-3.70;99.90
5786;DHT22;2919;48.630;9.000;2023-03-01T01:54:23;-3.70;99.90
5786;DHT22;2919;48.630;9.000;2023-03-01T01:56:59;-3.80;99.90
5786;DHT22;2919;48.630;9.000;2023-03-01T01:59:27;-3.80;99.90
5786;DHT22;2919;48.630;9.000;2023-03-01T02:01:54;-3.90;99.90
5786;DHT22;2919;48.630;9.000;2023-03-01T02:04:20;-3.90;99.90
5786;DHT22;2919;48.630;9.000;2023-03-01T02:07:03;-3.90;99.90
5786;DHT22;2919;48.630;9.000;2023-03-01T02:09:33;-3.90;99.90
5786;DHT22;2919;48.630;9.000;2023-03-01T02:12:00;-3.90;99.90
5786;DHT22;2919;48.630;9.000;2023-03-01T02:14:26;-3.80;99.90
5786;DHT22;2919;48.630;9.000;2023-03-01T02:16:52;-3.80;99.90
5786;DHT22;2919;48.630;9.000;2023-03-01T02:22:26;-3.70;99.90
5786;DHT22;2919;48.630;9.000;2023-03-01T02:27:49;-3.50;99.90
5786;DHT22;2919;48.630;9.000;2023-03-01T02:30:18;-3.50;99.90
5786;DHT22;2919;48.630;9.000;2023-03-01T02:32:44;-3.40;99.90
5786;DHT22;2919;48.630;9.000;2023-03-01T02:35:14;-3.30;99.90
5786;DHT22;2919;48.630;9.000;2023-03-01T02:37:42;-3.20;99.90
5786;DHT22;2919;48.630;9.000;2023-03-01T02:40:14;-3.10;99.90
5786;DHT22;2919;48.630;9.000;2023-03-01T02:43:08;-3.10;99.90
5786;DHT22;2919;48.630;9.000;2023-03-01T02:45:35;-3.00;99.90
5786;DHT22;2919;48.630;9.000;2023-03-01T02:48:01;-2.90;99.90
5786;DHT22;2919;48.630;9.000;2023-03-01T02:53:21;-2.80;99.90
5786;DHT22;2919;48.630;9.000;2023-03-01T02:55:48;-2.80;99.90
5786;DHT22;2919;48.630;9.000;2023-03-01T02:58:15;-2.70;99.90
5786;DHT22;2919;48.630;9.000;2023-03-01T03:00:42;-2.70;99.90
5786;DHT22;2919;48.630;9.000;2023-03-01T03:03:16;-2.70;99.90
5786;DHT22;2919;48.630;9.000;2023-03-01T03:05:43;-2.60;99.90
5786;DHT22;2919;48.630;9.000;2023-03-01T03:08:09;-2.60;99.90
5786;DHT22;2919;48.630;9.000;2023-03-01T03:10:40;-2.60;99.90
5786;DHT22;2919;48.630;9.000;2023-03-01T03:13:12;-2.50;99.90
5786;DHT22;2919;48.630;9.000;2023-03-01T03:15:38;-2.50;99.90
5786;DHT22;2919;48.630;9.000;2023-03-01T03:18:08;-2.50;99.90
5786;DHT22;2919;48.630;9.000;2023-03-01T03:20:34;-2.50;99.90
5786;DHT22;2919;48.630;9.000;2023-03-01T03:23:00;-2.50;99.90
5786;DHT22;2919;48.630;9.000;2023-03-01T03:25:26;-2.40;99.90
5786;DHT22;2919;48.630;9.000;2023-03-01T03:27:53;-2.40;99.90
5786;DHT22;2919;48.630;9.000;2023-03-01T03:30:23;-2.40;99.90
5786;DHT22;2919;48.630;9.000;2023-03-01T03:32:49;-2.30;99.90
5786;DHT22;2919;48.630;9.000;2023-03-01T03:35:28;-2.30;99.90
5786;DHT22;2919;48.630;9.000;2023-03-01T03:37:56;-2.20;99.90
5786;DHT22;2919;48.630;9.000;2023-03-01T03:40:36;-2.20;99.90
5786;DHT22;2919;48.630;9.000;2023-03-01T03:43:04;-2.10;99.90
5786;DHT22;2919;48.630;9.000;2023-03-01T03:45:30;-2.10;99.90
5786;DHT22;2919;48.630;9.000;2023-03-01T03:48:02;-2.10;99.90
5786;DHT22;2919;48.630;9.000;2023-03-01T03:50:28;-2.00;99.90
5786;DHT22;2919;48.630;9.000;2023-03-01T03:52:53;-1.90;99.90
5786;DHT22;2919;48.630;9.000;2023-03-01T03:55:19;-1.90;99.90
5786;DHT22;2919;48.630;9.000;2023-03-01T03:57:47;-1.90;99.90
5786;DHT22;2919;48.630;9.000;2023-03-01T04:00:19;-1.80;99.90
5786;DHT22;2919;48.630;9.000;2023-03-01T04:02:45;-1.80;99.90
5786;DHT22;2919;48.630;9.000;2023-03-01T04:05:13;-1.80;99.90
5786;DHT22;2919;48.630;9.000;2023-03-01T04:07:40;-1.80;99.90
5786;DHT22;2919;48.630;9.000;2023-03-01T04:10:10;-1.80;99.90
5786;DHT22;2919;48.630;9.000;2023-03-01T04:12:36;-1.70;99.90
5786;DHT22;2919;48.630;9.000;2023-03-01T04:15:03;-1.70;99.90
5786;DHT22;2919;48.630;9.000;2023-03-01T04:17:41;-1.60;99.90
5786;DHT22;2919;48.630;9.000;2023-03-01T04:20:18;-1.60;99.90
5786;DHT22;2919;48.630;9.000;2023-03-01T04:22:51;-1.60;99.90
5786;DHT22;2919;48.630;9.000;2023-03-01T04:25:17;-1.50;99.90
5786;DHT22;2919;48.630;9.000;2023-03-01T04:27:43;-1.50;99.90
5786;DHT22;2919;48.630;9.000;2023-03-01T04:30:09;-1.50;99.90
5786;DHT22;2919;48.630;9.000;2023-03-01T04:32:35;-1.50;99.90
5786;DHT22;2919;48.630;9.000;2023-03-01T04:35:01;-1.40;99.90
5786;DHT22;2919;48.630;9.000;2023-03-01T04:37:27;-1.40;99.90
5786;DHT22;2919;48.630;9.000;2023-03-01T04:39:53;-1.40;99.90
5786;DHT22;2919;48.630;9.000;2023-03-01T04:42:18;-1.40;99.90
5786;DHT22;2919;48.630;9.000;2023-03-01T04:44:45;-1.40;99.90
5786;DHT22;2919;48.630;9.000;2023-03-01T04:47:11;-1.30;99.90
5786;DHT22;2919;48.630;9.000;2023-03-01T04:49:36;-1.30;99.90
5786;DHT22;2919;48.630;9.000;2023-03-01T04:52:03;-1.30;99.90
5786;DHT22;2919;48.630;9.000;2023-03-01T04:54:33;-1.30;99.90
5786;DHT22;2919;48.630;9.000;2023-03-01T04:57:00;-1.30;99.90
5786;DHT22;2919;48.630;9.000;2023-03-01T04:59:26;-1.30;99.90
5786;DHT22;2919;48.630;9.000;2023-03-01T05:01:53;-1.30;99.90
5786;DHT22;2919;48.630;9.000;2023-03-01T05:04:24;-1.30;99.90
5786;DHT22;2919;48.630;9.000;2023-03-01T05:06:50;-1.30;99.90
5786;DHT22;2919;48.630;9.000;2023-03-01T05:09:16;-1.30;99.90
5786;DHT22;2919;48.630;9.000;2023-03-01T05:11:42;-1.30;99.90
5786;DHT22;2919;48.630;9.000;2023-03-01T05:14:08;-1.20;99.90
5786;DHT22;2919;48.630;9.000;2023-03-01T05:16:35;-1.20;99.90
5786;DHT22;2919;48.630;9.000;2023-03-01T05:19:02;-1.20;99.90
5786;DHT22;2919;48.630;9.000;2023-03-01T05:21:37;-1.20;99.90
5786;DHT22;2919;48.630;9.000;2023-03-01T05:24:23;-1.20;99.90
5786;DHT22;2919;48.630;9.000;2023-03-01T05:26:49;-1.20;99.90
5786;DHT22;2919;48.630;9.000;2023-03-01T05:29:17;-1.20;99.90
5786;DHT22;2919;48.630;9.000;2023-03-01T05:31:43;-1.10;99.90
5786;DHT22;2919;48.630;9.000;2023-03-01T05:34:08;-1.10;99.90
5786;DHT22;2919;48.630;9.000;2023-03-01T05:36:34;-1.10;99.90
5786;DHT22;2919;48.630;9.000;2023-03-01T05:39:00;-1.10;99.90
5786;DHT22;2919;48.630;9.000;2023-03-01T05:41:26;-1.10;99.90
5786;DHT22;2919;48.630;9.000;2023-03-01T05:43:52;-1.10;99.90
5786;DHT22;2919;48.630;9.000;2023-03-01T05:46:18;-1.10;99.90
5786;DHT22;2919;48.630;9.000;2023-03-01T05:48:43;-1.10;99.90
5786;DHT22;2919;48.630;9.000;2023-03-01T05:51:09;-1.10;99.90
5786;DHT22;2919;48.630;9.000;2023-03-01T05:53:35;-1.10;99.90
5786;DHT22;2919;48.630;9.000;2023-03-01T05:56:03;-1.10;99.90
5786;DHT22;2919;48.630;9.000;2023-03-01T05:58:29;-1.00;99.90
5786;DHT22;2919;48.630;9.000;2023-03-01T06:00:54;-1.00;99.90
5786;DHT22;2919;48.630;9.000;2023-03-01T06:03:20;-1.10;99.90
5786;DHT22;2919;48.630;9.000;2023-03-01T06:05:46;-1.00;99.90
5786;DHT22;2919;48.630;9.000;2023-03-01T06:08:12;-1.00;99.90
5786;DHT22;2919;48.630;9.000;2023-03-01T06:10:38;-0.90;99.90
5786;DHT22;2919;48.630;9.000;2023-03-01T06:13:04;-0.90;99.90
5786;DHT22;2919;48.630;9.000;2023-03-01T06:15:30;-0.90;99.90
5786;DHT22;2919;48.630;9.000;2023-03-01T06:17:56;-0.90;99.90
5786;DHT22;2919;48.630;9.000;2023-03-01T06:20:26;-0.80;99.90
5786;DHT22;2919;48.630;9.000;2023-03-01T06:22:52;-0.80;99.90
5786;DHT22;2919;48.630;9.000;2023-03-01T06:25:20;-0.80;99.90
5786;DHT22;2919;48.630;9.000;2023-03-01T06:27:46;-0.90;99.90
5786;DHT22;2919;48.630;9.000;2023-03-01T06:30:13;-0.80;99.90
5786;DHT22;2919;48.630;9.000;2023-03-01T06:32:40;-0.80;99.90
5786;DHT22;2919;48.630;9.000;2023-03-01T06:35:13;-0.80;99.90
5786;DHT22;2919;48.630;9.000;2023-03-01T06:37:40;-0.70;99.90
5786;DHT22;2919;48.630;9.000;2023-03-01T06:40:09;-0.70;99.90
5786;DHT22;2919;48.630;9.000;2023-03-01T06:42:37;-0.70;99.90
5786;DHT22;2919;48.630;9.000;2023-03-01T06:45:04;-0.60;99.90
5786;DHT22;2919;48.630;9.000;2023-03-01T06:47:31;-0.60;99.90
5786;DHT22;2919;48.630;9.000;2023-03-01T06:49:58;-0.60;99.90
5786;DHT22;2919;48.630;9.000;2023-03-01T06:52:24;-0.60;99.90
5786;DHT22;2919;48.630;9.000;2023-03-01T06:54:50;-0.50;99.90
5786;DHT22;2919;48.630;9.000;2023-03-01T06:57:15;-0.50;99.90
5786;DHT22;2919;48.630;9.000;2023-03-01T06:59:41;-0.50;99.90
5786;DHT22;2919;48.630;9.000;2023-03-01T07:02:10;-0.50;99.90
5786;DHT22;2919;48.630;9.000;2023-03-01T07:04:36;-0.40;99.90
5786;DHT22;2919;48.630;9.000;2023-03-01T07:07:02;-0.40;99.90
5786;DHT22;2919;48.630;9.000;2023-03-01T07:09:27;-0.30;99.90
5786;DHT22;2919;48.630;9.000;2023-03-01T07:11:53;-0.40;99.90
5786;DHT22;2919;48.630;9.000;2023-03-01T07:14:18;-0.40;99.90
5786;DHT22;2919;48.630;9.000;2023-03-01T07:16:45;-0.40;99.90
5786;DHT22;2919;48.630;9.000;2023-03-01T07:19:11;-0.40;99.90
5786;DHT22;2919;48.630;9.000;2023-03-01T07:21:36;-0.30;99.90
5786;DHT22;2919;48.630;9.000;2023-03-01T07:24:08;-0.20;99.90
5786;DHT22;2919;48.630;9.000;2023-03-01T07:26:34;-0.10;99.90
5786;DHT22;2919;48.630;9.000;2023-03-01T07:29:00;-0.10;99.90
5786;DHT22;2919;48.630;9.000;2023-03-01T07:31:26;0.00;99.90
5786;DHT22;2919;48.630;9.000;2023-03-01T07:33:54;0.10;99.90
5786;DHT22;2919;48.630;9.000;2023-03-01T07:36:19;0.20;99.90
5786;DHT22;2919;48.630;9.000;2023-03-01T07:38:45;0.20;99.90
5786;DHT22;2919;48.630;9.000;2023-03-01T07:41:11;0.40;99.90
5786;DHT22;2919;48.630;9.000;2023-03-01T07:43:36;0.50;99.90
5786;DHT22;2919;48.630;9.000;2023-03-01T07:46:03;0.50;99.90
5786;DHT22;2919;48.630;9.000;2023-03-01T07:48:29;0.60;99.90
5786;DHT22;2919;48.630;9.000;2023-03-01T07:50:58;0.90;99.90
5786;DHT22;2919;48.630;9.000;2023-03-01T07:53:24;1.20;99.90
5786;DHT22;2919;48.630;9.000;2023-03-01T07:55:50;1.40;99.40
5786;DHT22;2919;48.630;9.000;2023-03-01T07:58:24;1.70;98.80
5786;DHT22;2919;48.630;9.000;2023-03-01T08:00:50;2.10;98.40
5786;DHT22;2919;48.630;9.000;2023-03-01T08:03:16;2.50;97.40
5786;DHT22;2919;48.630;9.000;2023-03-01T08:05:41;2.80;96.60
5786;DHT22;2919;48.630;9.000;2023-03-01T08:08:07;3.10;96.20
5786;DHT22;2919;48.630;9.000;2023-03-01T08:10:32;3.20;95.50
5786;DHT22;2919;48.630;9.000;2023-03-01T08:12:58;3.40;95.10
5786;DHT22;2919;48.630;9.000;2023-03-01T08:15:23;3.70;94.60
5786;DHT22;2919;48.630;9.000;2023-03-01T08:17:49;3.60;94.20
5786;DHT22;2919;48.630;9.000;2023-03-01T08:20:16;3.90;93.90
5786;DHT22;2919;48.630;9.000;2023-03-01T08:22:42;4.20;93.80
5786;DHT22;2919;48.630;9.000;2023-03-01T08:25:07;4.60;92.80
5786;DHT22;2919;48.630;9.000;2023-03-01T08:27:33;4.40;92.30
5786;DHT22;2919;48.630;9.000;2023-03-01T08:29:59;4.20;92.70
5786;DHT22;2919;48.630;9.000;2023-03-01T08:32:24;3.90;93.00
5786;DHT22;2919;48.630;9.000;2023-03-01T08:34:50;3.70;92.70
5786;DHT22;2919;48.630;9.000;2023-03-01T08:37:15;4.30;92.60
5786;DHT22;2919;48.630;9.000;2023-03-01T08:39:41;4.20;91.90
5786;DHT22;2919;48.630;9.000;2023-03-01T08:42:07;4.40;91.90
5786;DHT22;2919;48.630;9.000;2023-03-01T08:44:32;4.40;91.80
5786;DHT22;2919;48.630;9.000;2023-03-01T08:46:58;4.60;91.40
5786;DHT22;2919;48.630;9.000;2023-03-01T08:49:25;4.30;90.90
5786;DHT22;2919;48.630;9.000;2023-03-01T08:51:51;4.10;91.60
5786;DHT22;2919;48.630;9.000;2023-03-01T08:54:21;4.20;92.00
5786;DHT22;2919;48.630;9.000;2023-03-01T08:56:47;4.30;91.70
5786;DHT22;2919;48.630;9.000;2023-03-01T08:59:14;4.20;91.30
5786;DHT22;2919;48.630;9.000;2023-03-01T09:01:41;4.50;91.30
5786;DHT22;2919;48.630;9.000;2023-03-01T09:04:09;4.60;91.00
5786;DHT22;2919;48.630;9.000;2023-03-01T09:06:34;4.40;91.50
5786;DHT22;2919;48.630;9.000;2023-03-01T09:09:00;4.50;91.30
5786;DHT22;2919;48.630;9.000;2023-03-01T09:11:28;4.90;90.70
5786;DHT22;2919;48.630;9.000;2023-03-01T09:13:53;4.50;90.70
5786;DHT22;2919;48.630;9.000;2023-03-01T09:16:20;4.60;90.90
5786;DHT22;2919;48.630;9.000;2023-03-01T09:18:52;4.60;91.20
5786;DHT22;2919;48.630;9.000;2023-03-01T09:21:21;5.10;90.40
5786;DHT22;2919;48.630;9.000;2023-03-01T09:23:48;4.60;90.60
5786;DHT22;2919;48.630;9.000;2023-03-01T09:26:16;4.00;90.80
5786;DHT22;2919;48.630;9.000;2023-03-01T09:28:44;4.10;91.20
5786;DHT22;2919;48.630;9.000;2023-03-01T09:31:11;3.90;91.20
5786;DHT22;2919;48.630;9.000;2023-03-01T09:33:38;3.70;91.90
5786;DHT22;2919;48.630;9.000;2023-03-01T09:36:07;3.50;92.20
5786;DHT22;2919;48.630;9.000;2023-03-01T09:38:33;3.40;92.30
5786;DHT22;2919;48.630;9.000;2023-03-01T09:41:01;3.30;92.50
5786;DHT22;2919;48.630;9.000;2023-03-01T09:45:59;2.90;92.90
5786;DHT22;2919;48.630;9.000;2023-03-01T09:48:52;2.70;93.90
5786;DHT22;2919;48.630;9.000;2023-03-01T09:51:32;2.70;93.60
5786;DHT22;2919;48.630;9.000;2023-03-01T09:53:59;2.50;93.70
5786;DHT22;2919;48.630;9.000;2023-03-01T09:56:41;2.40;93.80
5786;DHT22;2919;48.630;9.000;2023-03-01T10:04:38;2.80;93.20
5786;DHT22;2919;48.630;9.000;2023-03-01T10:09:40;3.10;93.30
5786;DHT22;2919;48.630;9.000;2023-03-01T10:12:15;3.00;93.10
5786;DHT22;2919;48.630;9.000;2023-03-01T10:15:09;3.10;93.10
5786;DHT22;2919;48.630;9.000;2023-03-01T10:17:52;3.20;93.00
5786;DHT22;2919;48.630;9.000;2023-03-01T10:20:28;3.30;93.10
5786;DHT22;2919;48.630;9.000;2023-03-01T10:22:55;3.40;92.60
5786;DHT22;2919;48.630;9.000;2023-03-01T10:31:24;3.70;92.10
5786;DHT22;2919;48.630;9.000;2023-03-01T10:33:55;3.70;92.20
5786;DHT22;2919;48.630;9.000;2023-03-01T10:36:23;3.70;92.40
5786;DHT22;2919;48.630;9.000;2023-03-01T10:38:52;3.70;92.20
5786;DHT22;2919;48.630;9.000;2023-03-01T10:41:20;3.70;92.00
5786;DHT22;2919;48.630;9.000;2023-03-01T10:43:55;3.80;92.00
5786;DHT22;2919;48.630;9.000;2023-03-01T10:46:33;4.00;92.00
5786;DHT22;2919;48.630;9.000;2023-03-01T10:49:17;4.00;91.70
5786;DHT22;2919;48.630;9.000;2023-03-01T10:51:45;4.10;91.90
5786;DHT22;2919;48.630;9.000;2023-03-01T10:54:31;4.00;91.70
5786;DHT22;2919;48.630;9.000;2023-03-01T11:02:20;4.40;91.50
5786;DHT22;2919;48.630;9.000;2023-03-01T11:05:16;4.40;91.50
5786;DHT22;2919;48.630;9.000;2023-03-01T11:07:55;4.50;91.70
5786;DHT22;2919;48.630;9.000;2023-03-01T11:10:28;4.70;91.30
5786;DHT22;2919;48.630;9.000;2023-03-01T11:13:18;4.90;90.50
5786;DHT22;2919;48.630;9.000;2023-03-01T11:16:03;4.90;90.60
5786;DHT22;2919;48.630;9.000;2023-03-01T11:18:30;5.10;90.60
5786;DHT22;2919;48.630;9.000;2023-03-01T11:20:56;5.20;90.20
5786;DHT22;2919;48.630;9.000;2023-03-01T11:23:23;5.20;90.20
5786;DHT22;2919;48.630;9.000;2023-03-01T11:25:55;5.30;89.90
5786;DHT22;2919;48.630;9.000;2023-03-01T11:28:22;5.20;90.10
5786;DHT22;2919;48.630;9.000;2023-03-01T11:33:30;5.10;90.50
5786;DHT22;2919;48.630;9.000;2023-03-01T11:38:41;5.50;89.00
5786;DHT22;2919;48.630;9.000;2023-03-01T11:41:26;5.40;90.40
5786;DHT22;2919;48.630;9.000;2023-03-01T11:44:00;5.30;90.10
5786;DHT22;2919;48.630;9.000;2023-03-01T11:54:44;5.70;88.90
5786;DHT22;2919;48.630;9.000;2023-03-01T12:05:52;6.20;87.60
5786;DHT22;2919;48.630;9.000;2023-03-01T12:08:48;6.20;87.80
5786;DHT22;2919;48.630;9.000;2023-03-01T12:25:31;6.50;87.30
5786;DHT22;2919;48.630;9.000;2023-03-01T12:42:50;6.90;83.90
5786;DHT22;2919;48.630;9.000;2023-03-01T12:50:21;6.90;83.80
5786;DHT22;2919;48.630;9.000;2023-03-01T12:52:55;6.90;84.40
5786;DHT22;2919;48.630;9.000;2023-03-01T12:55:33;6.90;84.50
5786;DHT22;2919;48.630;9.000;2023-03-01T13:06:46;6.80;83.80
5786;DHT22;2919;48.630;9.000;2023-03-01T13:17:50;7.30;83.30
5786;DHT22;2919;48.630;9.000;2023-03-01T13:20:19;7.30;83.00
5786;DHT22;2919;48.630;9.000;2023-03-01T13:22:46;7.30;83.30
5786;DHT22;2919;48.630;9.000;2023-03-01T13:25:18;7.20;82.50
5786;DHT22;2919;48.630;9.000;2023-03-01T13:27:45;7.10;83.40
5786;DHT22;2919;48.630;9.000;2023-03-01T13:35:54;7.20;82.30
5786;DHT22;2919;48.630;9.000;2023-03-01T13:38:55;7.10;84.30
5786;DHT22;2919;48.630;9.000;2023-03-01T13:46:45;7.10;83.70
5786;DHT22;2919;48.630;9.000;2023-03-01T13:49:18;7.10;83.60
5786;DHT22;2919;48.630;9.000;2023-03-01T13:51:47;7.00;83.00
5786;DHT22;2919;48.630;9.000;2023-03-01T13:54:25;7.00;83.30
5786;DHT22;2919;48.630;9.000;2023-03-01T13:56:51;6.90;83.60
5786;DHT22;2919;48.630;9.000;2023-03-01T13:59:20;7.00;83.60
5786;DHT22;2919;48.630;9.000;2023-03-01T14:01:56;7.00;83.90
5786;DHT22;2919;48.630;9.000;2023-03-01T14:04:30;6.90;84.50
5786;DHT22;2919;48.630;9.000;2023-03-01T14:07:19;7.00;84.00
5786;DHT22;2919;48.630;9.000;2023-03-01T14:09:48;7.00;84.20
5786;DHT22;2919;48.630;9.000;2023-03-01T14:15:36;7.10;84.20
5786;DHT22;2919;48.630;9.000;2023-03-01T14:18:36;7.10;83.80
5786;DHT22;2919;48.630;9.000;2023-03-01T14:21:08;7.00;83.90
5786;DHT22;2919;48.630;9.000;2023-03-01T14:23:33;7.00;85.10
5786;DHT22;2919;48.630;9.000;2023-03-01T14:26:01;7.00;84.40
5786;DHT22;2919;48.630;9.000;2023-03-01T14:28:32;7.00;84.20
5786;DHT22;2919;48.630;9.000;2023-03-01T14:31:00;7.00;84.60
5786;DHT22;2919;48.630;9.000;2023-03-01T14:33:34;7.10;84.30
5786;DHT22;2919;48.630;9.000;2023-03-01T14:41:11;7.20;84.10
5786;DHT22;2919;48.630;9.000;2023-03-01T14:43:45;7.10;84.00
5786;DHT22;2919;48.630;9.000;2023-03-01T14:48:51;6.90;84.40
5786;DHT22;2919;48.630;9.000;2023-03-01T14:51:18;7.00;84.40
5786;DHT22;2919;48.630;9.000;2023-03-01T14:53:44;7.10;84.50
5786;DHT22;2919;48.630;9.000;2023-03-01T14:56:15;7.10;83.50
5786;DHT22;2919;48.630;9.000;2023-03-01T14:58:43;7.00;83.70
5786;DHT22;2919;48.630;9.000;2023-03-01T15:01:14;6.90;84.40
5786;DHT22;2919;48.630;9.000;2023-03-01T15:03:46;6.90;84.70
5786;DHT22;2919;48.630;9.000;2023-03-01T15:06:19;6.80;84.70
5786;DHT22;2919;48.630;9.000;2023-03-01T15:08:48;6.70;84.60
5786;DHT22;2919;48.630;9.000;2023-03-01T15:11:25;6.60;84.80
5786;DHT22;2919;48.630;9.000;2023-03-01T15:13:52;6.40;85.90
5786;DHT22;2919;48.630;9.000;2023-03-01T15:18:56;6.50;85.60
5786;DHT22;2919;48.630;9.000;2023-03-01T15:23:54;6.30;86.00
5786;DHT22;2919;48.630;9.000;2023-03-01T15:26:52;6.30;86.00
5786;DHT22;2919;48.630;9.000;2023-03-01T15:29:21;6.40;86.00
5786;DHT22;2919;48.630;9.000;2023-03-01T15:32:05;6.40;86.30
5786;DHT22;2919;48.630;9.000;2023-03-01T15:34:32;6.40;86.80
5786;DHT22;2919;48.630;9.000;2023-03-01T15:37:00;6.30;86.40
5786;DHT22;2919;48.630;9.000;2023-03-01T15:39:42;6.30;86.50
5786;DHT22;2919;48.630;9.000;2023-03-01T15:42:17;6.30;87.00
5786;DHT22;2919;48.630;9.000;2023-03-01T15:45:21;6.30;87.30
5786;DHT22;2919;48.630;9.000;2023-03-01T15:47:50;6.30;86.90
5786;DHT22;2919;48.630;9.000;2023-03-01T15:50:22;6.30;87.30
5786;DHT22;2919;48.630;9.000;2023-03-01T15:52:50;6.30;87.10
5786;DHT22;2919;48.630;9.000;2023-03-01T15:55:21;6.20;87.50
5786;DHT22;2919;48.630;9.000;2023-03-01T15:57:48;6.20;87.70
5786;DHT22;2919;48.630;9.000;2023-03-01T16:00:14;6.20;87.60
5786;DHT22;2919;48.630;9.000;2023-03-01T16:02:41;6.20;87.20
5786;DHT22;2919;48.630;9.000;2023-03-01T16:05:36;6.10;87.90
5786;DHT22;2919;48.630;9.000;2023-03-01T16:08:02;5.90;87.90
5786;DHT22;2919;48.630;9.000;2023-03-01T16:10:28;5.80;88.70
5786;DHT22;2919;48.630;9.000;2023-03-01T16:12:55;5.70;89.80
5786;DHT22;2919;48.630;9.000;2023-03-01T16:17:48;5.60;88.90
5786;DHT22;2919;48.630;9.000;2023-03-01T16:20:14;5.60;89.20
5786;DHT22;2919;48.630;9.000;2023-03-01T16:22:43;5.50;89.60
5786;DHT22;2919;48.630;9.000;2023-03-01T16:25:14;5.50;89.70
5786;DHT22;2919;48.630;9.000;2023-03-01T16:27:44;5.40;90.00
5786;DHT22;2919;48.630;9.000;2023-03-01T16:30:11;5.40;90.00
5786;DHT22;2919;48.630;9.000;2023-03-01T16:32:39;5.30;90.00
5786;DHT22;2919;48.630;9.000;2023-03-01T16:35:09;5.20;90.30
5786;DHT22;2919;48.630;9.000;2023-03-01T16:37:35;5.20;90.30
5786;DHT22;2919;48.630;9.000;2023-03-01T16:40:01;5.20;90.20
5786;DHT22;2919;48.630;9.000;2023-03-01T16:42:27;5.20;89.90
5786;DHT22;2919;48.630;9.000;2023-03-01T16:44:56;5.10;90.40
5786;DHT22;2919;48.630;9.000;2023-03-01T16:47:22;5.00;90.20
5786;DHT22;2919;48.630;9.000;2023-03-01T16:49:51;4.90;90.20
5786;DHT22;2919;48.630;9.000;2023-03-01T16:52:16;4.90;90.30
5786;DHT22;2919;48.630;9.000;2023-03-01T16:54:42;4.80;90.30
5786;DHT22;2919;48.630;9.000;2023-03-01T16:57:08;4.80;90.10
5786;DHT22;2919;48.630;9.000;2023-03-01T16:59:33;4.80;90.20
5786;DHT22;2919;48.630;9.000;2023-03-01T17:01:59;4.70;90.40
5786;DHT22;2919;48.630;9.000;2023-03-01T17:04:24;4.70;90.60
5786;DHT22;2919;48.630;9.000;2023-03-01T17:06:50;4.60;90.40
5786;DHT22;2919;48.630;9.000;2023-03-01T17:09:15;4.60;90.30
5786;DHT22;2919;48.630;9.000;2023-03-01T17:11:42;4.60;90.20
5786;DHT22;2919;48.630;9.000;2023-03-01T17:14:08;4.50;90.10
5786;DHT22;2919;48.630;9.000;2023-03-01T17:16:34;4.50;90.20
5786;DHT22;2919;48.630;9.000;2023-03-01T17:19:00;4.40;90.20
5786;DHT22;2919;48.630;9.000;2023-03-01T17:21:26;4.40;90.30
5786;DHT22;2919;48.630;9.000;2023-03-01T17:23:55;4.40;90.30
5786;DHT22;2919;48.630;9.000;2023-03-01T17:26:21;4.30;90.40
5786;DHT22;2919;48.630;9.000;2023-03-01T17:28:47;4.20;90.60
5786;DHT22;2919;48.630;9.000;2023-03-01T17:31:18;4.10;90.70
5786;DHT22;2919;48.630;9.000;2023-03-01T17:33:43;4.10;90.70
5786;DHT22;2919;48.630;9.000;2023-03-01T17:36:09;4.10;90.80
5786;DHT22;2919;48.630;9.000;2023-03-01T17:38:35;4.10;91.00
5786;DHT22;2919;48.630;9.000;2023-03-01T17:41:02;4.10;90.80
5786;DHT22;2919;48.630;9.000;2023-03-01T17:43:28;4.00;90.90
5786;DHT22;2919;48.630;9.000;2023-03-01T17:45:55;4.00;90.90
5786;DHT22;2919;48.630;9.000;2023-03-01T17:48:21;3.90;90.90
5786;DHT22;2919;48.630;9.000;2023-03-01T17:50:47;3.90;91.10
5786;DHT22;2919;48.630;9.000;2023-03-01T17:53:13;3.80;91.10
5786;DHT22;2919;48.630;9.000;2023-03-01T17:55:40;3.70;91.30
5786;DHT22;2919;48.630;9.000;2023-03-01T17:58:07;3.70;91.30
5786;DHT22;2919;48.630;9.000;2023-03-01T18:00:34;3.70;91.50
5786;DHT22;2919;48.630;9.000;2023-03-01T18:03:00;3.60;91.50
5786;DHT22;2919;48.630;9.000;2023-03-01T18:05:26;3.60;91.70
5786;DHT22;2919;48.630;9.000;2023-03-01T18:07:52;3.60;91.80
5786;DHT22;2919;48.630;9.000;2023-03-01T18:10:19;3.50;92.30
5786;DHT22;2919;48.630;9.000;2023-03-01T18:12:45;3.40;92.00
5786;DHT22;2919;48.630;9.000;2023-03-01T18:15:11;3.40;92.30
5786;DHT22;2919;48.630;9.000;2023-03-01T18:17:37;3.30;92.50
5786;DHT22;2919;48.630;9.000;2023-03-01T18:20:05;3.30;92.70
5786;DHT22;2919;48.630;9.000;2023-03-01T18:22:31;3.20;92.90
5786;DHT22;2919;48.630;9.000;2023-03-01T18:24:57;3.20;93.00
5786;DHT22;2919;48.630;9.000;2023-03-01T18:27:23;3.10;93.20
5786;DHT22;2919;48.630;9.000;2023-03-01T18:29:50;3.10;93.40
5786;DHT22;2919;48.630;9.000;2023-03-01T18:32:16;3.10;93.40
5786;DHT22;2919;48.630;9.000;2023-03-01T18:34:42;3.10;93.50
5786;DHT22;2919;48.630;9.000;2023-03-01T18:37:08;3.00;93.40